sensor_id;sensor_type;location;lat;lon;timestamp;noise_LAeq;noise_LA_min;noise_LA_max;noise_LA01;noise_LA95
74234;Laerm;62591;55.764;37.718;2022-07-29T14:12:36;39.40;32.05;58.72;;
74234;Laerm;62591;55.764;37.718;2022-07-29T14:15:02;45.07;30.47;73.67;;
74234;Laerm;62591;55.764;37.718;2022-07-29T14:17:27;46.59;31.19;75.10;;
74234;Laerm;62591;55.764;37.718;2022-07-29T14:19:53;38.06;31.26;63.35;;
74234;Laerm;62591;55.764;37.718;2022-07-29T14:24:06;42.74;31.54;69.23;;
74234;Laerm;62591;55.764;37.718;2022-07-29T14:26:31;39.95;31.44;61.59;;
74234;Laerm;62591;55.764;37.718;2022-07-29T14:28:57;40.23;32.41;60.88;;
74234;Laerm;62591;55.764;37.718;2022-07-29T14:31:22;40.64;31.97;65.17;;
74234;Laerm;62591;55.764;37.718;2022-07-29T14:33:48;40.46;30.95;63.97;;
74234;Laerm;62591;55.764;37.718;2022-07-29T14:36:47;41.38;30.21;67.27;;
74234;Laerm;62591;55.764;37.718;2022-07-29T14:39:12;38.81;31.88;57.70;;
74234;Laerm;62591;55.764;37.718;2022-07-29T14:41:38;38.72;32.07;58.95;;
74234;Laerm;62591;55.764;37.718;2022-07-29T14:44:04;41.00;32.35;61.16;;
74234;Laerm;62591;55.764;37.718;2022-07-29T14:46:30;41.92;31.18;68.27;;
74234;Laerm;62591;55.764;37.718;2022-07-29T14:48:56;44.75;30.83;71.26;;
74234;Laerm;62591;55.764;37.718;2022-07-29T14:51:21;39.67;30.21;63.85;;
74234;Laerm;62591;55.764;37.718;2022-07-29T14:53:47;41.50;30.94;65.93;;
74234;Laerm;62591;55.764;37.718;2022-07-29T14:56:13;40.08;30.85;63.00;;
74234;Laerm;62591;55.764;37.718;2022-07-29T14:58:38;43.64;31.27;71.27;;
74234;Laerm;62591;55.764;37.718;2022-07-29T15:01:04;43.36;31.50;70.30;;
74234;Laerm;62591;55.764;37.718;2022-07-29T15:03:51;42.79;32.63;64.84;;
74234;Laerm;62591;55.764;37.718;2022-07-29T15:06:22;37.43;31.70;59.15;;
74234;Laerm;62591;55.764;37.718;2022-07-29T15:08:49;42.07;30.19;67.69;;
74234;Laerm;62591;55.764;37.718;2022-07-29T15:11:16;45.68;30.55;65.64;;
74234;Laerm;62591;55.764;37.718;2022-07-29T15:13:43;42.39;32.90;61.87;;
74234;Laerm;62591;55.764;37.718;2022-07-29T15:16:09;45.85;31.54;64.36;;
74234;Laerm;62591;55.764;37.718;2022-07-29T15:18:36;48.95;33.10;68.90;;
74234;Laerm;62591;55.764;37.718;2022-07-29T15:21:05;41.99;33.09;65.82;;
74234;Laerm;62591;55.764;37.718;2022-07-29T15:23:34;38.71;32.32;48.23;;
74234;Laerm;62591;55.764;37.718;2022-07-29T15:26:04;43.82;31.21;66.17;;
74234;Laerm;62591;55.764;37.718;2022-07-29T15:28:31;41.50;31.08;64.40;;
74234;Laerm;62591;55.764;37.718;2022-07-29T15:30:58;40.16;31.39;62.14;;
74234;Laerm;62591;55.764;37.718;2022-07-29T15:34:45;41.41;31.91;70.85;;
74234;Laerm;62591;55.764;37.718;2022-07-29T15:41:50;51.81;42.87;80.09;;
74234;Laerm;62591;55.764;37.718;2022-07-29T15:44:19;49.21;43.29;65.29;;
74234;Laerm;62591;55.764;37.718;2022-07-29T15:46:48;47.45;40.69;55.80;;
74234;Laerm;62591;55.764;37.718;2022-07-29T15:49:36;49.01;40.30;57.75;;
74234;Laerm;62591;55.764;37.718;2022-07-29T15:52:16;48.36;40.89;59.62;;
74234;Laerm;62591;55.764;37.718;2022-07-29T15:54:45;48.71;42.32;54.14;;
74234;Laerm;62591;55.764;37.718;2022-07-29T15:57:15;50.98;43.77;60.61;;
74234;Laerm;62591;55.764;37.718;2022-07-29T15:59:43;46.84;39.29;56.47;;
74234;Laerm;62591;55.764;37.718;2022-07-29T16:02:12;47.81;40.85;57.90;;
74234;Laerm;62591;55.764;37.718;2022-07-29T16:04:41;55.25;44.35;63.33;;
74234;Laerm;62591;55.764;37.718;2022-07-29T16:07:15;53.60;45.21;61.70;;
74234;Laerm;62591;55.764;37.718;2022-07-29T16:09:48;50.92;41.19;60.25;;
74234;Laerm;62591;55.764;37.718;2022-07-29T16:12:22;50.23;41.16;65.02;;
74234;Laerm;62591;55.764;37.718;2022-07-29T16:14:55;52.74;44.39;67.29;;
74234;Laerm;62591;55.764;37.718;2022-07-29T16:17:25;52.68;45.69;62.81;;
74234;Laerm;62591;55.764;37.718;2022-07-29T16:19:54;51.06;43.90;60.81;;
74234;Laerm;62591;55.764;37.718;2022-07-29T16:22:24;49.98;40.54;58.33;;
74234;Laerm;62591;55.764;37.718;2022-07-29T16:24:53;48.73;43.06;57.13;;
74234;Laerm;62591;55.764;37.718;2022-07-29T16:27:23;46.84;42.35;64.77;;
74234;Laerm;62591;55.764;37.718;2022-07-29T16:29:57;50.60;42.02;67.59;;
74234;Laerm;62591;55.764;37.718;2022-07-29T16:32:25;51.95;38.77;73.64;;
74234;Laerm;62591;55.764;37.718;2022-07-29T16:34:56;47.68;39.55;59.39;;
74234;Laerm;62591;55.764;37.718;2022-07-29T16:37:28;48.80;40.45;63.65;;
74234;Laerm;62591;55.764;37.718;2022-07-29T16:40:01;48.97;41.18;60.41;;
74234;Laerm;62591;55.764;37.718;2022-07-29T16:42:33;50.28;40.26;64.88;;
74234;Laerm;62591;55.764;37.718;2022-07-29T16:45:12;51.01;39.90;68.25;;
74234;Laerm;62591;55.764;37.718;2022-07-29T16:47:41;46.96;40.80;55.50;;
74234;Laerm;62591;55.764;37.718;2022-07-29T16:50:11;45.58;38.87;53.64;;
74234;Laerm;62591;55.764;37.718;2022-07-29T16:52:40;46.71;38.37;53.67;;
74234;Laerm;62591;55.764;37.718;2022-07-29T16:55:08;45.04;38.66;55.39;;
74234;Laerm;62591;55.764;37.718;2022-07-29T16:57:38;47.14;38.56;58.07;;
74234;Laerm;62591;55.764;37.718;2022-07-29T17:00:09;47.54;39.61;62.58;;
74234;Laerm;62591;55.764;37.718;2022-07-29T17:02:37;48.01;38.60;54.93;;
74234;Laerm;62591;55.764;37.718;2022-07-29T17:05:09;49.09;40.96;62.32;;
74234;Laerm;62591;55.764;37.718;2022-07-29T17:07:42;47.48;38.55;56.37;;
74234;Laerm;62591;55.764;37.718;2022-07-29T17:10:10;50.14;37.60;65.78;;
74234;Laerm;62591;55.764;37.718;2022-07-29T17:12:44;46.29;38.13;55.11;;
74234;Laerm;62591;55.764;37.718;2022-07-29T17:15:14;47.37;39.14;56.18;;
74234;Laerm;62591;55.764;37.718;2022-07-29T17:17:46;49.57;38.98;60.23;;
74234;Laerm;62591;55.764;37.718;2022-07-29T17:20:21;46.31;38.80;59.05;;
74234;Laerm;62591;55.764;37.718;2022-07-29T17:22:50;49.56;39.89;65.30;;
74234;Laerm;62591;55.764;37.718;2022-07-29T17:25:18;50.73;38.53;70.28;;
74234;Laerm;62591;55.764;37.718;2022-07-29T17:27:48;49.16;38.81;61.36;;
74234;Laerm;62591;55.764;37.718;2022-07-29T17:30:24;52.92;39.05;71.54;;
74234;Laerm;62591;55.764;37.718;2022-07-29T17:32:53;47.39;38.12;67.02;;
74234;Laerm;62591;55.764;37.718;2022-07-29T17:35:22;46.34;38.05;55.81;;
74234;Laerm;62591;55.764;37.718;2022-07-29T17:38:07;48.50;39.49;58.76;;
74234;Laerm;62591;55.764;37.718;2022-07-29T17:40:36;49.26;41.16;58.18;;
74234;Laerm;62591;55.764;37.718;2022-07-29T17:43:06;54.60;37.82;78.73;;
74234;Laerm;62591;55.764;37.718;2022-07-29T17:45:35;46.74;38.25;62.97;;
74234;Laerm;62591;55.764;37.718;2022-07-29T17:48:14;47.77;39.85;60.32;;
74234;Laerm;62591;55.764;37.718;2022-07-29T17:50:44;48.03;39.83;58.85;;
74234;Laerm;62591;55.764;37.718;2022-07-29T17:53:12;45.16;38.29;58.34;;
74234;Laerm;62591;55.764;37.718;2022-07-29T17:55:42;48.06;39.03;60.33;;
74234;Laerm;62591;55.764;37.718;2022-07-29T17:58:14;44.20;37.05;64.25;;
74234;Laerm;62591;55.764;37.718;2022-07-29T18:00:46;47.33;38.47;60.40;;
74234;Laerm;62591;55.764;37.718;2022-07-29T18:03:17;43.37;37.27;53.04;;
74234;Laerm;62591;55.764;37.718;2022-07-29T18:05:46;50.83;39.71;69.60;;
74234;Laerm;62591;55.764;37.718;2022-07-29T18:08:15;44.43;37.24;54.43;;
74234;Laerm;62591;55.764;37.718;2022-07-29T18:10:44;49.81;38.17;71.92;;
74234;Laerm;62591;55.764;37.718;2022-07-29T18:13:15;50.59;39.64;70.62;;
74234;Laerm;62591;55.764;37.718;2022-07-29T18:15:44;45.95;39.97;57.35;;
74234;Laerm;62591;55.764;37.718;2022-07-29T18:18:14;47.50;38.03;56.11;;
74234;Laerm;62591;55.764;37.718;2022-07-29T18:20:44;44.44;37.45;60.02;;
74234;Laerm;62591;55.764;37.718;2022-07-29T18:23:13;45.59;37.80;53.52;;
74234;Laerm;62591;55.764;37.718;2022-07-29T18:25:42;48.62;40.53;73.41;;
74234;Laerm;62591;55.764;37.718;2022-07-29T18:28:11;47.29;41.68;58.29;;
74234;Laerm;62591;55.764;37.718;2022-07-29T18:30:41;45.61;39.68;56.95;;
74234;Laerm;62591;55.764;37.718;2022-07-29T18:33:09;46.16;39.19;53.46;;
74234;Laerm;62591;55.764;37.718;2022-07-29T18:35:49;46.18;36.74;58.85;;
74234;Laerm;62591;55.764;37.718;2022-07-29T18:38:18;47.62;40.52;58.26;;
74234;Laerm;62591;55.764;37.718;2022-07-29T18:40:47;47.65;38.68;62.00;;
74234;Laerm;62591;55.764;37.718;2022-07-29T18:43:18;47.07;39.08;62.26;;
74234;Laerm;62591;55.764;37.718;2022-07-29T18:45:48;46.58;37.97;56.34;;
74234;Laerm;62591;55.764;37.718;2022-07-29T18:48:16;44.86;37.48;54.91;;
74234;Laerm;62591;55.764;37.718;2022-07-29T18:50:45;44.17;37.30;61.05;;
74234;Laerm;62591;55.764;37.718;2022-07-29T18:53:16;45.02;37.73;56.11;;
74234;Laerm;62591;55.764;37.718;2022-07-29T18:55:48;47.52;39.79;56.46;;
74234;Laerm;62591;55.764;37.718;2022-07-29T18:58:17;44.99;39.45;61.34;;
74234;Laerm;62591;55.764;37.718;2022-07-29T19:00:46;46.54;39.85;59.00;;
74234;Laerm;62591;55.764;37.718;2022-07-29T19:03:15;51.66;39.55;70.76;;
74234;Laerm;62591;55.764;37.718;2022-07-29T19:05:43;49.54;39.07;65.65;;
74234;Laerm;62591;55.764;37.718;2022-07-29T19:08:11;46.14;39.11;59.98;;
74234;Laerm;62591;55.764;37.718;2022-07-29T19:10:40;43.46;38.94;55.89;;
74234;Laerm;62591;55.764;37.718;2022-07-29T19:13:09;44.80;38.66;64.33;;
74234;Laerm;62591;55.764;37.718;2022-07-29T19:15:39;45.47;36.82;53.71;;
74234;Laerm;62591;55.764;37.718;2022-07-29T19:18:10;44.32;37.31;54.10;;
74234;Laerm;62591;55.764;37.718;2022-07-29T19:20:39;46.70;37.20;62.06;;
74234;Laerm;62591;55.764;37.718;2022-07-29T19:23:08;45.22;37.92;56.88;;
74234;Laerm;62591;55.764;37.718;2022-07-29T19:25:36;45.39;38.08;55.60;;
74234;Laerm;62591;55.764;37.718;2022-07-29T19:28:07;48.04;39.88;63.94;;
74234;Laerm;62591;55.764;37.718;2022-07-29T19:30:37;49.08;38.84;67.64;;
74234;Laerm;62591;55.764;37.718;2022-07-29T19:33:06;45.66;37.83;54.97;;
74234;Laerm;62591;55.764;37.718;2022-07-29T19:35:36;44.91;37.69;56.87;;
74234;Laerm;62591;55.764;37.718;2022-07-29T19:38:06;46.82;39.04;58.61;;
74234;Laerm;62591;55.764;37.718;2022-07-29T19:40:38;58.21;39.39;77.72;;
74234;Laerm;62591;55.764;37.718;2022-07-29T19:43:07;46.88;38.97;56.48;;
74234;Laerm;62591;55.764;37.718;2022-07-29T19:45:57;46.16;36.75;65.95;;
74234;Laerm;62591;55.764;37.718;2022-07-29T19:48:28;45.88;39.25;57.30;;
74234;Laerm;62591;55.764;37.718;2022-07-29T19:51:00;43.20;37.48;53.74;;
74234;Laerm;62591;55.764;37.718;2022-07-29T19:53:30;43.07;37.27;55.06;;
74234;Laerm;62591;55.764;37.718;2022-07-29T19:55:59;44.93;36.96;61.77;;
74234;Laerm;62591;55.764;37.718;2022-07-29T19:58:27;47.11;38.32;60.88;;
74234;Laerm;62591;55.764;37.718;2022-07-29T20:00:56;47.39;37.37;61.25;;
74234;Laerm;62591;55.764;37.718;2022-07-29T20:03:27;43.61;37.39;52.72;;
74234;Laerm;62591;55.764;37.718;2022-07-29T20:05:58;44.35;36.51;60.03;;
74234;Laerm;62591;55.764;37.718;2022-07-29T20:08:29;44.11;37.02;55.08;;
74234;Laerm;62591;55.764;37.718;2022-07-29T20:10:57;45.13;38.67;55.65;;
74234;Laerm;62591;55.764;37.718;2022-07-29T20:13:26;43.39;36.81;51.61;;
74234;Laerm;62591;55.764;37.718;2022-07-29T20:15:57;41.91;35.91;58.12;;
74234;Laerm;62591;55.764;37.718;2022-07-29T20:18:25;44.78;36.61;53.80;;
74234;Laerm;62591;55.764;37.718;2022-07-29T20:20:54;45.95;38.43;59.46;;
74234;Laerm;62591;55.764;37.718;2022-07-29T20:23:27;45.07;38.11;56.82;;
74234;Laerm;62591;55.764;37.718;2022-07-29T20:25:55;44.25;37.50;59.48;;
74234;Laerm;62591;55.764;37.718;2022-07-29T20:28:23;42.71;36.78;55.55;;
74234;Laerm;62591;55.764;37.718;2022-07-29T20:30:52;42.06;37.27;54.35;;
74234;Laerm;62591;55.764;37.718;2022-07-29T20:33:20;45.88;37.57;54.68;;
74234;Laerm;62591;55.764;37.718;2022-07-29T20:35:48;48.34;37.71;66.47;;
74234;Laerm;62591;55.764;37.718;2022-07-29T20:38:17;43.04;36.49;55.36;;
74234;Laerm;62591;55.764;37.718;2022-07-29T20:40:47;43.98;38.54;51.77;;
74234;Laerm;62591;55.764;37.718;2022-07-29T20:43:19;41.93;36.72;50.53;;
74234;Laerm;62591;55.764;37.718;2022-07-29T20:45:48;48.93;37.44;60.96;;
74234;Laerm;62591;55.764;37.718;2022-07-29T20:48:16;46.34;38.79;54.20;;
74234;Laerm;62591;55.764;37.718;2022-07-29T20:50:47;43.83;38.47;50.97;;
74234;Laerm;62591;55.764;37.718;2022-07-29T20:53:15;47.64;38.54;66.66;;
74234;Laerm;62591;55.764;37.718;2022-07-29T20:55:48;44.71;36.33;61.87;;
74234;Laerm;62591;55.764;37.718;2022-07-29T20:58:17;43.92;37.74;52.12;;
74234;Laerm;62591;55.764;37.718;2022-07-29T21:00:47;45.97;38.52;57.63;;
74234;Laerm;62591;55.764;37.718;2022-07-29T21:03:16;42.51;36.74;53.71;;
74234;Laerm;62591;55.764;37.718;2022-07-29T21:05:44;41.53;35.42;47.54;;
74234;Laerm;62591;55.764;37.718;2022-07-29T21:08:13;41.60;36.53;51.13;;
74234;Laerm;62591;55.764;37.718;2022-07-29T21:10:41;40.20;36.04;47.30;;
74234;Laerm;62591;55.764;37.718;2022-07-29T21:13:14;44.64;37.66;54.73;;
74234;Laerm;62591;55.764;37.718;2022-07-29T21:15:42;42.76;36.66;52.55;;
74234;Laerm;62591;55.764;37.718;2022-07-29T21:18:14;42.44;35.34;51.58;;
74234;Laerm;62591;55.764;37.718;2022-07-29T21:20:55;46.46;36.92;55.09;;
74234;Laerm;62591;55.764;37.718;2022-07-29T21:23:24;44.04;36.56;56.14;;
74234;Laerm;62591;55.764;37.718;2022-07-29T21:25:53;42.33;36.73;50.00;;
74234;Laerm;62591;55.764;37.718;2022-07-29T21:28:23;42.00;35.98;53.92;;
74234;Laerm;62591;55.764;37.718;2022-07-29T21:30:53;44.82;37.12;52.20;;
74234;Laerm;62591;55.764;37.718;2022-07-29T21:33:29;41.66;36.63;48.65;;
74234;Laerm;62591;55.764;37.718;2022-07-29T21:35:59;42.78;37.73;51.63;;
74234;Laerm;62591;55.764;37.718;2022-07-29T21:38:47;40.85;36.40;46.42;;
74234;Laerm;62591;55.764;37.718;2022-07-29T21:41:16;47.22;36.64;57.16;;
74234;Laerm;62591;55.764;37.718;2022-07-29T21:43:46;43.74;36.66;53.03;;
74234;Laerm;62591;55.764;37.718;2022-07-29T21:46:14;46.23;39.02;54.02;;
74234;Laerm;62591;55.764;37.718;2022-07-29T21:48:45;42.36;35.97;55.14;;
74234;Laerm;62591;55.764;37.718;2022-07-29T21:51:14;42.65;35.67;52.41;;
74234;Laerm;62591;55.764;37.718;2022-07-29T21:53:42;42.37;36.60;50.19;;
74234;Laerm;62591;55.764;37.718;2022-07-29T21:56:11;52.10;36.68;75.31;;
74234;Laerm;62591;55.764;37.718;2022-07-29T21:58:41;42.28;35.96;65.54;;
74234;Laerm;62591;55.764;37.718;2022-07-29T22:01:11;43.82;37.67;60.80;;
74234;Laerm;62591;55.764;37.718;2022-07-29T22:03:40;44.75;36.78;59.22;;
74234;Laerm;62591;55.764;37.718;2022-07-29T22:06:09;44.50;36.26;54.74;;
74234;Laerm;62591;55.764;37.718;2022-07-29T22:08:44;43.17;37.55;52.83;;
74234;Laerm;62591;55.764;37.718;2022-07-29T22:11:13;42.50;37.17;54.63;;
74234;Laerm;62591;55.764;37.718;2022-07-29T22:13:48;41.72;36.65;51.11;;
74234;Laerm;62591;55.764;37.718;2022-07-29T22:16:19;42.00;36.19;58.96;;
74234;Laerm;62591;55.764;37.718;2022-07-29T22:18:48;42.53;36.11;60.09;;
74234;Laerm;62591;55.764;37.718;2022-07-29T22:21:22;41.01;36.58;50.02;;
74234;Laerm;62591;55.764;37.718;2022-07-29T22:23:51;41.82;36.73;55.41;;
74234;Laerm;62591;55.764;37.718;2022-07-29T22:26:19;44.73;35.91;53.10;;
74234;Laerm;62591;55.764;37.718;2022-07-29T22:28:49;44.10;37.39;54.96;;
74234;Laerm;62591;55.764;37.718;2022-07-29T22:31:20;40.41;34.67;49.53;;
74234;Laerm;62591;55.764;37.718;2022-07-29T22:33:51;40.66;35.05;48.98;;
74234;Laerm;62591;55.764;37.718;2022-07-29T22:36:20;44.42;36.87;61.16;;
74234;Laerm;62591;55.764;37.718;2022-07-29T22:38:48;40.80;35.21;58.42;;
74234;Laerm;62591;55.764;37.718;2022-07-29T22:41:17;41.61;36.70;53.11;;
74234;Laerm;62591;55.764;37.718;2022-07-29T22:43:46;40.08;35.00;49.94;;
74234;Laerm;62591;55.764;37.718;2022-07-29T22:46:16;40.18;35.21;54.74;;
74234;Laerm;62591;55.764;37.718;2022-07-29T22:48:46;40.21;35.37;56.55;;
74234;Laerm;62591;55.764;37.718;2022-07-29T22:51:15;42.32;37.03;52.77;;
74234;Laerm;62591;55.764;37.718;2022-07-29T22:53:43;42.55;35.81;65.25;;
74234;Laerm;62591;55.764;37.718;2022-07-29T22:56:12;40.02;35.00;48.81;;
74234;Laerm;62591;55.764;37.718;2022-07-29T22:58:41;42.72;36.51;50.23;;
74234;Laerm;62591;55.764;37.718;2022-07-29T23:01:09;41.63;35.85;48.23;;
74234;Laerm;62591;55.764;37.718;2022-07-29T23:03:40;41.74;36.41;55.09;;
74234;Laerm;62591;55.764;37.718;2022-07-29T23:06:18;42.58;36.13;52.88;;
74234;Laerm;62591;55.764;37.718;2022-07-29T23:08:46;41.80;36.60;60.30;;
74234;Laerm;62591;55.764;37.718;2022-07-29T23:11:15;45.74;37.10;59.08;;
74234;Laerm;62591;55.764;37.718;2022-07-29T23:13:43;41.23;35.85;60.69;;
74234;Laerm;62591;55.764;37.718;2022-07-29T23:16:12;41.89;36.26;48.62;;
74234;Laerm;62591;55.764;37.718;2022-07-29T23:18:40;41.85;35.37;49.26;;
74234;Laerm;62591;55.764;37.718;2022-07-29T23:21:09;40.17;34.97;52.94;;
74234;Laerm;62591;55.764;37.718;2022-07-29T23:23:39;40.58;35.32;51.85;;
74234;Laerm;62591;55.764;37.718;2022-07-29T23:26:08;39.14;35.28;49.67;;
74234;Laerm;62591;55.764;37.718;2022-07-29T23:28:38;39.97;35.23;51.43;;
74234;Laerm;62591;55.764;37.718;2022-07-29T23:31:09;40.48;34.77;49.16;;
74234;Laerm;62591;55.764;37.718;2022-07-29T23:33:39;44.21;34.69;57.29;;
74234;Laerm;62591;55.764;37.718;2022-07-29T23:36:08;42.43;35.87;55.20;;
74234;Laerm;62591;55.764;37.718;2022-07-29T23:38:39;41.94;35.95;52.39;;
74234;Laerm;62591;55.764;37.718;2022-07-29T23:41:08;49.93;34.83;68.61;;
74234;Laerm;62591;55.764;37.718;2022-07-29T23:43:36;42.32;35.27;58.48;;
74234;Laerm;62591;55.764;37.718;2022-07-29T23:46:05;42.75;34.73;58.24;;
74234;Laerm;62591;55.764;37.718;2022-07-29T23:48:33;39.04;34.55;53.15;;
74234;Laerm;62591;55.764;37.718;2022-07-29T23:51:01;40.79;34.58;52.89;;
74234;Laerm;62591;55.764;37.718;2022-07-29T23:53:30;42.56;35.58;53.67;;
74234;Laerm;62591;55.764;37.718;2022-07-29T23:56:00;40.44;34.49;47.99;;
74234;Laerm;62591;55.764;37.718;2022-07-29T23:58:28;38.85;34.50;45.54;;
